Terminal Aerodrome Forecast
Issued by NWS

Home | Current Version | Previous Version | Graphics & Text | Print | Product List | Glossary On
Versions: 1 2 3 4 5 6 7 8 9 10 11 12 13 14 15
349
FTUS43 KBIS 180526
TAFJMS
TAF
KJMS 180526Z 1806/1906 03010KT P6SM FEW120
     FM181100 01006KT P6SM OVC060=

USA.gov is the U.S. government's official web portal to all federal, state and local government web resources and services.